sensor_id;sensor_type;location;lat;lon;timestamp;temperature;humidity
298;DHT22;133;49.626;9.680;2022-09-01T00:01:14;17.10;83.00
298;DHT22;133;49.626;9.680;2022-09-01T00:03:46;17.10;83.10
298;DHT22;133;49.626;9.680;2022-09-01T00:06:16;17.00;83.00
298;DHT22;133;49.626;9.680;2022-09-01T00:08:47;17.00;83.20
298;DHT22;133;49.626;9.680;2022-09-01T00:11:13;16.90;83.40
298;DHT22;133;49.626;9.680;2022-09-01T00:13:39;16.90;83.40
298;DHT22;133;49.626;9.680;2022-09-01T00:16:05;16.90;83.50
298;DHT22;133;49.626;9.680;2022-09-01T00:18:30;16.90;83.90
298;DHT22;133;49.626;9.680;2022-09-01T00:20:58;16.90;83.70
298;DHT22;133;49.626;9.680;2022-09-01T00:23:25;16.90;83.70
298;DHT22;133;49.626;9.680;2022-09-01T00:25:51;16.90;84.00
298;DHT22;133;49.626;9.680;2022-09-01T00:28:17;16.90;83.70
298;DHT22;133;49.626;9.680;2022-09-01T00:30:42;16.90;83.70
298;DHT22;133;49.626;9.680;2022-09-01T00:33:08;16.90;83.70
298;DHT22;133;49.626;9.680;2022-09-01T00:35:34;17.00;83.40
298;DHT22;133;49.626;9.680;2022-09-01T00:37:59;17.00;83.30
298;DHT22;133;49.626;9.680;2022-09-01T00:40:25;17.20;82.50
298;DHT22;133;49.626;9.680;2022-09-01T00:42:51;17.10;82.30
298;DHT22;133;49.626;9.680;2022-09-01T00:45:19;17.10;82.20
298;DHT22;133;49.626;9.680;2022-09-01T00:47:46;17.20;81.60
298;DHT22;133;49.626;9.680;2022-09-01T00:50:14;17.20;81.80
298;DHT22;133;49.626;9.680;2022-09-01T00:52:45;17.10;82.10
298;DHT22;133;49.626;9.680;2022-09-01T00:55:24;17.10;82.30
298;DHT22;133;49.626;9.680;2022-09-01T00:57:51;17.10;82.30
298;DHT22;133;49.626;9.680;2022-09-01T01:00:20;17.10;82.20
298;DHT22;133;49.626;9.680;2022-09-01T01:02:47;17.10;82.20
298;DHT22;133;49.626;9.680;2022-09-01T01:05:14;17.10;82.40
298;DHT22;133;49.626;9.680;2022-09-01T01:07:41;17.20;82.60
298;DHT22;133;49.626;9.680;2022-09-01T01:10:09;17.30;82.30
298;DHT22;133;49.626;9.680;2022-09-01T01:12:37;17.30;82.30
298;DHT22;133;49.626;9.680;2022-09-01T01:15:06;17.40;82.10
298;DHT22;133;49.626;9.680;2022-09-01T01:17:34;17.50;81.80
298;DHT22;133;49.626;9.680;2022-09-01T01:20:00;17.50;81.70
298;DHT22;133;49.626;9.680;2022-09-01T01:25:51;17.60;81.00
298;DHT22;133;49.626;9.680;2022-09-01T01:28:33;17.60;80.90
298;DHT22;133;49.626;9.680;2022-09-01T01:31:03;17.60;80.50
298;DHT22;133;49.626;9.680;2022-09-01T01:33:33;17.70;80.60
298;DHT22;133;49.626;9.680;2022-09-01T01:36:01;17.70;80.40
298;DHT22;133;49.626;9.680;2022-09-01T01:38:28;17.60;80.50
298;DHT22;133;49.626;9.680;2022-09-01T01:40:55;17.60;80.40
298;DHT22;133;49.626;9.680;2022-09-01T01:43:22;17.60;80.20
298;DHT22;133;49.626;9.680;2022-09-01T01:45:50;17.60;80.20
298;DHT22;133;49.626;9.680;2022-09-01T01:48:18;17.50;80.50
298;DHT22;133;49.626;9.680;2022-09-01T01:50:53;17.40;80.60
298;DHT22;133;49.626;9.680;2022-09-01T01:53:20;17.40;80.20
298;DHT22;133;49.626;9.680;2022-09-01T01:55:47;17.40;80.10
298;DHT22;133;49.626;9.680;2022-09-01T01:58:14;17.20;80.90
298;DHT22;133;49.626;9.680;2022-09-01T02:00:41;17.10;81.20
298;DHT22;133;49.626;9.680;2022-09-01T02:03:12;17.10;81.10
298;DHT22;133;49.626;9.680;2022-09-01T02:05:41;16.80;81.80
298;DHT22;133;49.626;9.680;2022-09-01T02:08:08;16.80;82.10
298;DHT22;133;49.626;9.680;2022-09-01T02:10:39;16.80;82.10
298;DHT22;133;49.626;9.680;2022-09-01T02:13:07;16.60;82.40
298;DHT22;133;49.626;9.680;2022-09-01T02:15:36;16.60;83.00
298;DHT22;133;49.626;9.680;2022-09-01T02:18:18;16.70;82.80
298;DHT22;133;49.626;9.680;2022-09-01T02:20:46;16.60;82.70
298;DHT22;133;49.626;9.680;2022-09-01T02:23:14;16.60;83.00
298;DHT22;133;49.626;9.680;2022-09-01T02:25:44;16.60;82.90
298;DHT22;133;49.626;9.680;2022-09-01T02:28:14;16.60;83.00
298;DHT22;133;49.626;9.680;2022-09-01T02:30:45;16.60;83.10
298;DHT22;133;49.626;9.680;2022-09-01T02:33:15;16.60;83.20
298;DHT22;133;49.626;9.680;2022-09-01T02:35:48;16.50;83.10
298;DHT22;133;49.626;9.680;2022-09-01T02:38:15;16.50;83.30
298;DHT22;133;49.626;9.680;2022-09-01T02:40:45;16.50;83.50
298;DHT22;133;49.626;9.680;2022-09-01T02:43:14;16.50;83.40
298;DHT22;133;49.626;9.680;2022-09-01T02:45:44;16.50;83.30
298;DHT22;133;49.626;9.680;2022-09-01T02:48:11;16.60;83.20
298;DHT22;133;49.626;9.680;2022-09-01T02:50:39;16.50;83.30
298;DHT22;133;49.626;9.680;2022-09-01T02:53:06;16.50;83.40
298;DHT22;133;49.626;9.680;2022-09-01T02:55:43;16.50;83.70
298;DHT22;133;49.626;9.680;2022-09-01T02:58:09;16.40;84.00
298;DHT22;133;49.626;9.680;2022-09-01T03:00:43;16.40;84.40
298;DHT22;133;49.626;9.680;2022-09-01T03:03:09;16.30;84.40
298;DHT22;133;49.626;9.680;2022-09-01T03:05:37;16.20;84.10
298;DHT22;133;49.626;9.680;2022-09-01T03:08:06;16.20;84.70
298;DHT22;133;49.626;9.680;2022-09-01T03:10:37;16.10;84.90
298;DHT22;133;49.626;9.680;2022-09-01T03:13:08;16.00;85.50
298;DHT22;133;49.626;9.680;2022-09-01T03:15:35;15.90;85.40
298;DHT22;133;49.626;9.680;2022-09-01T03:18:02;15.90;85.40
298;DHT22;133;49.626;9.680;2022-09-01T03:20:29;15.80;85.70
298;DHT22;133;49.626;9.680;2022-09-01T03:22:59;15.70;85.80
298;DHT22;133;49.626;9.680;2022-09-01T03:25:25;15.70;86.10
298;DHT22;133;49.626;9.680;2022-09-01T03:27:55;15.70;86.40
298;DHT22;133;49.626;9.680;2022-09-01T03:30:24;15.60;86.50
298;DHT22;133;49.626;9.680;2022-09-01T03:32:51;15.60;86.50
298;DHT22;133;49.626;9.680;2022-09-01T03:35:17;15.60;86.30
298;DHT22;133;49.626;9.680;2022-09-01T03:37:43;15.50;86.30
298;DHT22;133;49.626;9.680;2022-09-01T03:40:10;15.50;86.50
298;DHT22;133;49.626;9.680;2022-09-01T03:42:37;15.40;86.70
298;DHT22;133;49.626;9.680;2022-09-01T03:45:04;15.40;86.80
298;DHT22;133;49.626;9.680;2022-09-01T03:47:37;15.40;87.00
298;DHT22;133;49.626;9.680;2022-09-01T03:50:06;15.40;86.90
298;DHT22;133;49.626;9.680;2022-09-01T03:52:35;15.30;87.60
298;DHT22;133;49.626;9.680;2022-09-01T03:55:03;15.30;87.20
298;DHT22;133;49.626;9.680;2022-09-01T03:57:29;15.30;87.10
298;DHT22;133;49.626;9.680;2022-09-01T03:59:55;15.30;87.10
298;DHT22;133;49.626;9.680;2022-09-01T04:02:21;15.30;87.40
298;DHT22;133;49.626;9.680;2022-09-01T04:04:47;15.20;87.30
298;DHT22;133;49.626;9.680;2022-09-01T04:07:12;15.20;87.40
298;DHT22;133;49.626;9.680;2022-09-01T04:09:38;15.20;87.50
298;DHT22;133;49.626;9.680;2022-09-01T04:12:04;15.10;87.80
298;DHT22;133;49.626;9.680;2022-09-01T04:14:33;15.10;87.70
298;DHT22;133;49.626;9.680;2022-09-01T04:16:59;15.10;88.10
298;DHT22;133;49.626;9.680;2022-09-01T04:19:43;15.00;88.20
298;DHT22;133;49.626;9.680;2022-09-01T04:22:08;15.00;88.50
298;DHT22;133;49.626;9.680;2022-09-01T04:24:42;15.00;88.40
298;DHT22;133;49.626;9.680;2022-09-01T04:27:10;15.00;88.20
298;DHT22;133;49.626;9.680;2022-09-01T04:29:36;14.90;88.50
298;DHT22;133;49.626;9.680;2022-09-01T04:32:06;14.80;88.90
298;DHT22;133;49.626;9.680;2022-09-01T04:34:36;14.80;88.70
298;DHT22;133;49.626;9.680;2022-09-01T04:37:07;14.80;88.90
298;DHT22;133;49.626;9.680;2022-09-01T04:39:33;14.80;88.90
298;DHT22;133;49.626;9.680;2022-09-01T04:42:01;14.80;89.10
298;DHT22;133;49.626;9.680;2022-09-01T04:44:28;14.80;89.10
298;DHT22;133;49.626;9.680;2022-09-01T04:46:55;14.80;89.40
298;DHT22;133;49.626;9.680;2022-09-01T04:49:21;14.70;89.30
298;DHT22;133;49.626;9.680;2022-09-01T04:51:51;14.70;89.30
298;DHT22;133;49.626;9.680;2022-09-01T04:54:17;14.60;89.40
298;DHT22;133;49.626;9.680;2022-09-01T04:56:45;14.60;89.70
298;DHT22;133;49.626;9.680;2022-09-01T04:59:14;14.60;90.10
298;DHT22;133;49.626;9.680;2022-09-01T05:01:40;14.60;90.20
298;DHT22;133;49.626;9.680;2022-09-01T05:06:45;14.60;90.00
298;DHT22;133;49.626;9.680;2022-09-01T05:09:12;14.60;90.00
298;DHT22;133;49.626;9.680;2022-09-01T05:11:39;14.60;90.00
298;DHT22;133;49.626;9.680;2022-09-01T05:14:05;14.60;90.30
298;DHT22;133;49.626;9.680;2022-09-01T05:16:33;14.60;90.00
298;DHT22;133;49.626;9.680;2022-09-01T05:19:00;14.60;90.00
298;DHT22;133;49.626;9.680;2022-09-01T05:21:26;14.60;90.00
298;DHT22;133;49.626;9.680;2022-09-01T05:23:54;14.60;90.00
298;DHT22;133;49.626;9.680;2022-09-01T05:26:24;14.60;89.90
298;DHT22;133;49.626;9.680;2022-09-01T05:28:55;14.70;89.90
298;DHT22;133;49.626;9.680;2022-09-01T05:31:22;14.70;89.80
298;DHT22;133;49.626;9.680;2022-09-01T05:33:49;14.80;89.70
298;DHT22;133;49.626;9.680;2022-09-01T05:36:20;14.90;89.60
298;DHT22;133;49.626;9.680;2022-09-01T05:38:47;14.90;89.30
298;DHT22;133;49.626;9.680;2022-09-01T05:41:15;14.90;89.20
298;DHT22;133;49.626;9.680;2022-09-01T05:43:46;14.90;89.60
298;DHT22;133;49.626;9.680;2022-09-01T05:46:16;15.00;89.50
298;DHT22;133;49.626;9.680;2022-09-01T05:48:43;15.10;89.40
298;DHT22;133;49.626;9.680;2022-09-01T05:51:10;15.10;89.80
298;DHT22;133;49.626;9.680;2022-09-01T05:53:39;15.20;89.10
298;DHT22;133;49.626;9.680;2022-09-01T05:56:06;15.30;89.00
298;DHT22;133;49.626;9.680;2022-09-01T05:58:34;15.50;88.30
298;DHT22;133;49.626;9.680;2022-09-01T06:01:01;15.60;88.10
298;DHT22;133;49.626;9.680;2022-09-01T06:03:27;15.70;87.90
298;DHT22;133;49.626;9.680;2022-09-01T06:05:54;15.80;87.40
298;DHT22;133;49.626;9.680;2022-09-01T06:08:23;16.00;86.90
298;DHT22;133;49.626;9.680;2022-09-01T06:10:51;16.10;85.90
298;DHT22;133;49.626;9.680;2022-09-01T06:13:18;16.20;85.80
298;DHT22;133;49.626;9.680;2022-09-01T06:15:49;16.20;85.70
298;DHT22;133;49.626;9.680;2022-09-01T06:18:18;16.30;85.60
298;DHT22;133;49.626;9.680;2022-09-01T06:20:45;16.40;85.10
298;DHT22;133;49.626;9.680;2022-09-01T06:23:12;16.50;84.80
298;DHT22;133;49.626;9.680;2022-09-01T06:25:44;16.50;84.60
298;DHT22;133;49.626;9.680;2022-09-01T06:28:13;16.60;84.40
298;DHT22;133;49.626;9.680;2022-09-01T06:30:39;16.60;83.90
298;DHT22;133;49.626;9.680;2022-09-01T06:33:05;16.60;84.00
298;DHT22;133;49.626;9.680;2022-09-01T06:35:37;16.60;83.80
298;DHT22;133;49.626;9.680;2022-09-01T06:38:04;16.60;83.90
298;DHT22;133;49.626;9.680;2022-09-01T06:40:31;16.60;83.90
298;DHT22;133;49.626;9.680;2022-09-01T06:42:58;16.60;84.00
298;DHT22;133;49.626;9.680;2022-09-01T06:45:25;16.70;84.30
298;DHT22;133;49.626;9.680;2022-09-01T06:47:51;16.70;84.20
298;DHT22;133;49.626;9.680;2022-09-01T06:50:19;16.80;84.20
298;DHT22;133;49.626;9.680;2022-09-01T06:52:47;16.90;84.00
298;DHT22;133;49.626;9.680;2022-09-01T06:55:15;17.00;84.20
298;DHT22;133;49.626;9.680;2022-09-01T06:57:42;17.20;83.90
298;DHT22;133;49.626;9.680;2022-09-01T07:00:12;17.30;83.40
298;DHT22;133;49.626;9.680;2022-09-01T07:02:52;17.50;83.30
298;DHT22;133;49.626;9.680;2022-09-01T07:05:19;17.60;83.00
298;DHT22;133;49.626;9.680;2022-09-01T07:07:47;17.70;82.80
298;DHT22;133;49.626;9.680;2022-09-01T07:10:16;17.80;82.40
298;DHT22;133;49.626;9.680;2022-09-01T07:12:51;18.00;81.80
298;DHT22;133;49.626;9.680;2022-09-01T07:15:17;18.20;81.40
298;DHT22;133;49.626;9.680;2022-09-01T07:17:55;18.30;80.90
298;DHT22;133;49.626;9.680;2022-09-01T07:20:25;18.50;80.30
298;DHT22;133;49.626;9.680;2022-09-01T07:22:53;18.60;79.40
298;DHT22;133;49.626;9.680;2022-09-01T07:25:19;18.80;79.20
298;DHT22;133;49.626;9.680;2022-09-01T07:27:45;18.90;78.70
298;DHT22;133;49.626;9.680;2022-09-01T07:30:19;19.00;77.80
298;DHT22;133;49.626;9.680;2022-09-01T07:32:47;19.20;77.30
298;DHT22;133;49.626;9.680;2022-09-01T07:35:15;19.30;77.10
298;DHT22;133;49.626;9.680;2022-09-01T07:37:43;19.50;76.90
298;DHT22;133;49.626;9.680;2022-09-01T07:40:14;19.60;76.40
298;DHT22;133;49.626;9.680;2022-09-01T07:42:43;19.80;76.20
298;DHT22;133;49.626;9.680;2022-09-01T07:45:10;19.90;75.80
298;DHT22;133;49.626;9.680;2022-09-01T07:47:36;20.00;75.60
298;DHT22;133;49.626;9.680;2022-09-01T07:50:08;20.10;75.60
298;DHT22;133;49.626;9.680;2022-09-01T07:52:36;20.20;75.50
298;DHT22;133;49.626;9.680;2022-09-01T07:55:10;20.30;75.20
298;DHT22;133;49.626;9.680;2022-09-01T07:57:38;20.30;74.20
298;DHT22;133;49.626;9.680;2022-09-01T08:00:07;20.30;74.00
298;DHT22;133;49.626;9.680;2022-09-01T08:02:33;20.40;74.10
298;DHT22;133;49.626;9.680;2022-09-01T08:04:59;20.40;74.10
298;DHT22;133;49.626;9.680;2022-09-01T08:07:25;20.40;73.90
298;DHT22;133;49.626;9.680;2022-09-01T08:09:50;20.50;74.10
298;DHT22;133;49.626;9.680;2022-09-01T08:12:16;20.60;73.80
298;DHT22;133;49.626;9.680;2022-09-01T08:14:41;20.70;73.60
298;DHT22;133;49.626;9.680;2022-09-01T08:17:07;20.70;73.30
298;DHT22;133;49.626;9.680;2022-09-01T08:19:33;20.80;73.20
298;DHT22;133;49.626;9.680;2022-09-01T08:22:00;20.90;73.10
298;DHT22;133;49.626;9.680;2022-09-01T08:24:26;20.90;73.30
298;DHT22;133;49.626;9.680;2022-09-01T08:26:52;21.00;73.30
298;DHT22;133;49.626;9.680;2022-09-01T08:29:18;21.10;73.20
298;DHT22;133;49.626;9.680;2022-09-01T08:31:45;21.20;72.70
298;DHT22;133;49.626;9.680;2022-09-01T08:34:11;21.20;72.50
298;DHT22;133;49.626;9.680;2022-09-01T08:36:37;21.30;72.30
298;DHT22;133;49.626;9.680;2022-09-01T08:39:03;21.30;72.30
298;DHT22;133;49.626;9.680;2022-09-01T08:41:37;21.30;72.10
298;DHT22;133;49.626;9.680;2022-09-01T08:44:12;21.40;72.30
298;DHT22;133;49.626;9.680;2022-09-01T08:46:42;21.40;72.80
298;DHT22;133;49.626;9.680;2022-09-01T08:49:19;21.40;72.50
298;DHT22;133;49.626;9.680;2022-09-01T08:51:53;21.50;72.70
298;DHT22;133;49.626;9.680;2022-09-01T08:54:44;21.70;72.10
298;DHT22;133;49.626;9.680;2022-09-01T08:57:36;21.80;71.80
298;DHT22;133;49.626;9.680;2022-09-01T09:00:04;21.80;72.10
298;DHT22;133;49.626;9.680;2022-09-01T09:11:03;22.00;71.20
298;DHT22;133;49.626;9.680;2022-09-01T09:14:02;22.00;71.10
298;DHT22;133;49.626;9.680;2022-09-01T09:16:49;22.00;70.80
298;DHT22;133;49.626;9.680;2022-09-01T09:19:38;22.00;71.00
298;DHT22;133;49.626;9.680;2022-09-01T09:22:07;22.00;70.90
298;DHT22;133;49.626;9.680;2022-09-01T09:25:00;22.10;71.10
298;DHT22;133;49.626;9.680;2022-09-01T09:27:39;22.30;70.90
298;DHT22;133;49.626;9.680;2022-09-01T09:30:12;22.60;70.20
298;DHT22;133;49.626;9.680;2022-09-01T09:32:54;22.70;69.70
298;DHT22;133;49.626;9.680;2022-09-01T09:35:33;22.80;69.70
298;DHT22;133;49.626;9.680;2022-09-01T09:43:27;23.30;68.30
298;DHT22;133;49.626;9.680;2022-09-01T09:48:46;23.70;66.70
298;DHT22;133;49.626;9.680;2022-09-01T09:51:21;24.00;67.00
298;DHT22;133;49.626;9.680;2022-09-01T09:53:48;24.40;66.00
298;DHT22;133;49.626;9.680;2022-09-01T09:56:21;24.60;65.00
298;DHT22;133;49.626;9.680;2022-09-01T09:58:51;24.90;64.30
298;DHT22;133;49.626;9.680;2022-09-01T10:03:56;25.40;62.70
298;DHT22;133;49.626;9.680;2022-09-01T10:06:42;25.50;61.40
298;DHT22;133;49.626;9.680;2022-09-01T10:09:33;25.50;61.10
298;DHT22;133;49.626;9.680;2022-09-01T10:12:00;25.40;60.70
298;DHT22;133;49.626;9.680;2022-09-01T10:15:05;25.60;60.60
298;DHT22;133;49.626;9.680;2022-09-01T10:17:42;25.70;60.30
298;DHT22;133;49.626;9.680;2022-09-01T10:20:13;25.50;59.80
298;DHT22;133;49.626;9.680;2022-09-01T10:22:41;25.70;59.80
298;DHT22;133;49.626;9.680;2022-09-01T10:25:18;25.90;60.20
298;DHT22;133;49.626;9.680;2022-09-01T10:27:48;26.10;59.00
298;DHT22;133;49.626;9.680;2022-09-01T10:30:17;26.00;57.40
298;DHT22;133;49.626;9.680;2022-09-01T10:32:56;26.10;57.70
298;DHT22;133;49.626;9.680;2022-09-01T10:35:32;26.30;57.60
298;DHT22;133;49.626;9.680;2022-09-01T10:38:01;26.10;56.50
298;DHT22;133;49.626;9.680;2022-09-01T10:45:57;25.50;57.60
298;DHT22;133;49.626;9.680;2022-09-01T10:59:33;30.70;49.50
298;DHT22;133;49.626;9.680;2022-09-01T11:10:15;32.00;46.10
298;DHT22;133;49.626;9.680;2022-09-01T11:12:59;32.00;47.10
298;DHT22;133;49.626;9.680;2022-09-01T11:15:40;32.50;45.90
298;DHT22;133;49.626;9.680;2022-09-01T11:18:23;33.10;45.00
298;DHT22;133;49.626;9.680;2022-09-01T11:20:51;33.60;43.70
298;DHT22;133;49.626;9.680;2022-09-01T11:23:27;33.30;43.70
298;DHT22;133;49.626;9.680;2022-09-01T11:25:55;33.20;44.10
298;DHT22;133;49.626;9.680;2022-09-01T11:36:19;31.00;46.40
298;DHT22;133;49.626;9.680;2022-09-01T11:38:51;30.30;47.50
298;DHT22;133;49.626;9.680;2022-09-01T11:41:23;29.90;47.80
298;DHT22;133;49.626;9.680;2022-09-01T11:43:51;29.70;48.00
298;DHT22;133;49.626;9.680;2022-09-01T11:46:27;29.30;48.70
298;DHT22;133;49.626;9.680;2022-09-01T11:48:54;28.90;48.50
298;DHT22;133;49.626;9.680;2022-09-01T11:51:20;28.60;49.30
298;DHT22;133;49.626;9.680;2022-09-01T11:53:46;28.80;48.40
298;DHT22;133;49.626;9.680;2022-09-01T11:56:17;28.80;48.50
298;DHT22;133;49.626;9.680;2022-09-01T11:58:45;28.20;49.20
298;DHT22;133;49.626;9.680;2022-09-01T12:01:20;27.90;49.70
298;DHT22;133;49.626;9.680;2022-09-01T12:03:47;27.40;50.10
298;DHT22;133;49.626;9.680;2022-09-01T12:06:25;27.20;50.90
298;DHT22;133;49.626;9.680;2022-09-01T12:08:55;27.10;51.30
298;DHT22;133;49.626;9.680;2022-09-01T12:11:29;27.00;51.60
298;DHT22;133;49.626;9.680;2022-09-01T12:14:07;26.90;51.50
298;DHT22;133;49.626;9.680;2022-09-01T12:16:35;26.80;51.40
298;DHT22;133;49.626;9.680;2022-09-01T12:19:03;26.90;52.30
298;DHT22;133;49.626;9.680;2022-09-01T12:21:40;27.70;52.80
298;DHT22;133;49.626;9.680;2022-09-01T12:24:17;28.60;49.00
298;DHT22;133;49.626;9.680;2022-09-01T12:26:45;29.70;49.20
298;DHT22;133;49.626;9.680;2022-09-01T12:29:12;30.80;47.20
298;DHT22;133;49.626;9.680;2022-09-01T12:31:40;31.60;45.20
298;DHT22;133;49.626;9.680;2022-09-01T12:34:24;32.00;43.40
298;DHT22;133;49.626;9.680;2022-09-01T12:37:09;32.20;43.90
298;DHT22;133;49.626;9.680;2022-09-01T12:39:39;32.30;43.20
298;DHT22;133;49.626;9.680;2022-09-01T12:42:26;32.50;42.70
298;DHT22;133;49.626;9.680;2022-09-01T12:45:03;32.70;42.00
298;DHT22;133;49.626;9.680;2022-09-01T12:52:32;33.70;40.70
298;DHT22;133;49.626;9.680;2022-09-01T12:57:30;32.90;40.50
298;DHT22;133;49.626;9.680;2022-09-01T13:07:55;30.10;44.30
298;DHT22;133;49.626;9.680;2022-09-01T13:10:26;30.80;44.00
298;DHT22;133;49.626;9.680;2022-09-01T13:12:53;31.30;42.80
298;DHT22;133;49.626;9.680;2022-09-01T13:15:22;32.10;43.20
298;DHT22;133;49.626;9.680;2022-09-01T13:17:50;32.80;41.50
298;DHT22;133;49.626;9.680;2022-09-01T13:20:16;33.60;41.00
298;DHT22;133;49.626;9.680;2022-09-01T13:22:42;34.10;39.90
298;DHT22;133;49.626;9.680;2022-09-01T13:25:13;34.20;38.50
298;DHT22;133;49.626;9.680;2022-09-01T13:27:41;33.60;39.70
298;DHT22;133;49.626;9.680;2022-09-01T13:30:13;32.80;41.30
298;DHT22;133;49.626;9.680;2022-09-01T13:32:40;31.80;41.90
298;DHT22;133;49.626;9.680;2022-09-01T13:35:06;31.20;43.30
298;DHT22;133;49.626;9.680;2022-09-01T13:37:31;30.50;43.60
298;DHT22;133;49.626;9.680;2022-09-01T13:39:57;29.90;44.60
298;DHT22;133;49.626;9.680;2022-09-01T13:42:23;29.40;45.90
298;DHT22;133;49.626;9.680;2022-09-01T13:44:49;29.10;45.70
298;DHT22;133;49.626;9.680;2022-09-01T13:47:14;29.00;46.80
298;DHT22;133;49.626;9.680;2022-09-01T13:49:40;28.70;45.80
298;DHT22;133;49.626;9.680;2022-09-01T13:52:06;28.70;46.40
298;DHT22;133;49.626;9.680;2022-09-01T13:54:31;28.60;46.50
298;DHT22;133;49.626;9.680;2022-09-01T13:56:57;28.70;46.40
298;DHT22;133;49.626;9.680;2022-09-01T13:59:23;28.60;46.60
298;DHT22;133;49.626;9.680;2022-09-01T14:01:49;28.40;47.40
298;DHT22;133;49.626;9.680;2022-09-01T14:04:15;28.20;48.00
298;DHT22;133;49.626;9.680;2022-09-01T14:06:41;28.00;48.10
298;DHT22;133;49.626;9.680;2022-09-01T14:09:10;27.80;48.10
298;DHT22;133;49.626;9.680;2022-09-01T14:11:36;27.60;48.00
298;DHT22;133;49.626;9.680;2022-09-01T14:14:03;27.40;48.40
298;DHT22;133;49.626;9.680;2022-09-01T14:16:29;27.30;48.40
298;DHT22;133;49.626;9.680;2022-09-01T14:18:54;27.20;49.10
298;DHT22;133;49.626;9.680;2022-09-01T14:21:20;26.90;49.50
298;DHT22;133;49.626;9.680;2022-09-01T14:23:45;26.80;50.30
298;DHT22;133;49.626;9.680;2022-09-01T14:26:14;26.80;50.70
298;DHT22;133;49.626;9.680;2022-09-01T14:28:42;26.80;50.80
298;DHT22;133;49.626;9.680;2022-09-01T14:31:11;26.80;50.80
298;DHT22;133;49.626;9.680;2022-09-01T14:33:38;26.80;50.50
298;DHT22;133;49.626;9.680;2022-09-01T14:36:04;26.70;50.50
298;DHT22;133;49.626;9.680;2022-09-01T14:38:30;26.50;50.70
298;DHT22;133;49.626;9.680;2022-09-01T14:40:56;26.60;51.50
298;DHT22;133;49.626;9.680;2022-09-01T14:43:22;26.60;50.90
298;DHT22;133;49.626;9.680;2022-09-01T14:45:48;26.50;50.60
298;DHT22;133;49.626;9.680;2022-09-01T14:48:16;26.30;51.00
298;DHT22;133;49.626;9.680;2022-09-01T14:50:45;26.30;51.50
298;DHT22;133;49.626;9.680;2022-09-01T14:53:11;26.30;51.40
298;DHT22;133;49.626;9.680;2022-09-01T14:55:37;26.10;51.70
298;DHT22;133;49.626;9.680;2022-09-01T14:58:03;25.90;51.50
298;DHT22;133;49.626;9.680;2022-09-01T15:00:30;25.90;51.70
298;DHT22;133;49.626;9.680;2022-09-01T15:02:57;25.90;51.70
298;DHT22;133;49.626;9.680;2022-09-01T15:05:23;25.70;51.90
298;DHT22;133;49.626;9.680;2022-09-01T15:07:50;25.70;51.80
298;DHT22;133;49.626;9.680;2022-09-01T15:10:18;25.60;52.40
298;DHT22;133;49.626;9.680;2022-09-01T15:12:44;25.50;52.20
298;DHT22;133;49.626;9.680;2022-09-01T15:15:10;25.50;52.70
298;DHT22;133;49.626;9.680;2022-09-01T15:17:35;25.50;52.60
298;DHT22;133;49.626;9.680;2022-09-01T15:20:03;25.40;53.30
298;DHT22;133;49.626;9.680;2022-09-01T15:22:48;25.30;52.70
298;DHT22;133;49.626;9.680;2022-09-01T15:25:15;25.20;53.00
298;DHT22;133;49.626;9.680;2022-09-01T15:27:40;25.20;52.80
298;DHT22;133;49.626;9.680;2022-09-01T15:30:08;25.20;53.20
298;DHT22;133;49.626;9.680;2022-09-01T15:32:40;25.30;53.10
298;DHT22;133;49.626;9.680;2022-09-01T15:35:07;25.30;53.40
298;DHT22;133;49.626;9.680;2022-09-01T15:37:33;25.40;53.00
298;DHT22;133;49.626;9.680;2022-09-01T15:39:58;25.30;52.40
298;DHT22;133;49.626;9.680;2022-09-01T15:42:24;25.30;52.90
298;DHT22;133;49.626;9.680;2022-09-01T15:44:51;25.20;53.10
298;DHT22;133;49.626;9.680;2022-09-01T15:47:16;25.30;53.00
298;DHT22;133;49.626;9.680;2022-09-01T15:49:42;25.30;52.70
298;DHT22;133;49.626;9.680;2022-09-01T15:52:08;25.40;52.90
298;DHT22;133;49.626;9.680;2022-09-01T15:54:37;25.50;52.50
298;DHT22;133;49.626;9.680;2022-09-01T15:57:03;25.50;52.80
298;DHT22;133;49.626;9.680;2022-09-01T15:59:29;25.50;52.60
298;DHT22;133;49.626;9.680;2022-09-01T16:01:55;25.50;52.50
298;DHT22;133;49.626;9.680;2022-09-01T16:04:21;25.50;52.60
298;DHT22;133;49.626;9.680;2022-09-01T16:06:48;25.40;52.60
298;DHT22;133;49.626;9.680;2022-09-01T16:09:16;25.40;52.50
298;DHT22;133;49.626;9.680;2022-09-01T16:11:43;25.40;52.10
298;DHT22;133;49.626;9.680;2022-09-01T16:14:09;25.50;52.20
298;DHT22;133;49.626;9.680;2022-09-01T16:22:10;25.40;52.20
298;DHT22;133;49.626;9.680;2022-09-01T16:24:41;25.40;52.00
298;DHT22;133;49.626;9.680;2022-09-01T16:27:11;25.40;51.70
298;DHT22;133;49.626;9.680;2022-09-01T16:29:48;25.50;52.00
298;DHT22;133;49.626;9.680;2022-09-01T16:32:16;25.60;52.00
298;DHT22;133;49.626;9.680;2022-09-01T16:34:44;25.60;51.80
298;DHT22;133;49.626;9.680;2022-09-01T16:37:38;25.70;51.90
298;DHT22;133;49.626;9.680;2022-09-01T16:43:21;25.70;51.50
298;DHT22;133;49.626;9.680;2022-09-01T16:56:30;25.40;51.80
298;DHT22;133;49.626;9.680;2022-09-01T16:59:18;25.30;51.90
298;DHT22;133;49.626;9.680;2022-09-01T17:04:46;25.20;52.20
298;DHT22;133;49.626;9.680;2022-09-01T17:07:41;25.20;51.90
298;DHT22;133;49.626;9.680;2022-09-01T17:13:06;25.00;51.90
298;DHT22;133;49.626;9.680;2022-09-01T17:15:36;24.90;52.10
298;DHT22;133;49.626;9.680;2022-09-01T17:18:27;24.80;52.40
298;DHT22;133;49.626;9.680;2022-09-01T17:20:58;24.70;52.70
298;DHT22;133;49.626;9.680;2022-09-01T17:23:29;24.60;52.60
298;DHT22;133;49.626;9.680;2022-09-01T17:26:04;24.60;52.90
298;DHT22;133;49.626;9.680;2022-09-01T17:28:37;24.50;53.20
298;DHT22;133;49.626;9.680;2022-09-01T17:36:41;24.10;53.90
298;DHT22;133;49.626;9.680;2022-09-01T17:39:29;24.00;53.80
298;DHT22;133;49.626;9.680;2022-09-01T17:42:07;23.90;53.80
298;DHT22;133;49.626;9.680;2022-09-01T17:44:49;23.80;54.70
298;DHT22;133;49.626;9.680;2022-09-01T17:50:17;23.50;55.10
298;DHT22;133;49.626;9.680;2022-09-01T17:55:55;23.20;56.30
298;DHT22;133;49.626;9.680;2022-09-01T17:58:46;23.20;56.60
298;DHT22;133;49.626;9.680;2022-09-01T18:07:00;22.80;56.80
298;DHT22;133;49.626;9.680;2022-09-01T18:09:30;22.70;56.70
298;DHT22;133;49.626;9.680;2022-09-01T18:12:04;22.60;57.00
298;DHT22;133;49.626;9.680;2022-09-01T18:14:40;22.50;57.00
298;DHT22;133;49.626;9.680;2022-09-01T18:17:14;22.40;57.30
298;DHT22;133;49.626;9.680;2022-09-01T18:19:46;22.30;57.80
298;DHT22;133;49.626;9.680;2022-09-01T18:22:16;22.20;58.00
298;DHT22;133;49.626;9.680;2022-09-01T18:27:11;22.00;58.40
298;DHT22;133;49.626;9.680;2022-09-01T18:29:37;21.90;59.10
298;DHT22;133;49.626;9.680;2022-09-01T18:32:13;21.90;59.40
298;DHT22;133;49.626;9.680;2022-09-01T18:35:04;21.80;59.60
298;DHT22;133;49.626;9.680;2022-09-01T18:40:35;21.60;60.70
298;DHT22;133;49.626;9.680;2022-09-01T18:54:12;21.10;62.00
298;DHT22;133;49.626;9.680;2022-09-01T18:56:54;21.00;62.10
298;DHT22;133;49.626;9.680;2022-09-01T19:04:57;20.90;62.70
298;DHT22;133;49.626;9.680;2022-09-01T19:07:26;20.80;62.90
298;DHT22;133;49.626;9.680;2022-09-01T19:12:52;20.60;63.50